Kristina — SFB8756 — position and weather

sailwx.info

Track history (hours):
 
Tides and Currents Weather Stations Pressure Air Temp Water Temp Dewpoint Dewpoint Depression Visibility Wind Speed Wind Dir Waves Ship Positions

Kristina

Last reported at 2016-May-29 14:34 UTC. Time now 2016-May-29 15:24 UTC.
Position N 55°29' E 014°17'.

Length 11 m; draft 2 m.

Type: Fishing. MMSI: 265630900.

Date/timePositionNaut miles runAvg speedWind from/ knotsBaromVisibWave heightAir tempDewpointWater temp
2016-May-29 14:34N 55°29' E 014°17'0 0.0
2016-May-29 13:34N 55°29' E 014°17'0 0.0
2016-May-29 12:33N 55°29' E 014°17'0 0.0
2016-May-29 11:33N 55°29' E 014°17'0 0.0
2016-May-29 10:33N 55°29' E 014°17'0 0.0
2016-May-29 09:33N 55°29' E 014°17'0 0.0
2016-May-29 08:34N 55°29' E 014°17'0 0.0
2016-May-29 07:24N 55°29' E 014°17'0 0.0
2016-May-29 06:33N 55°29' E 014°17'11 0.6
2016-May-28 12:07N 55°17' E 014°17'3 5.1
2016-May-28 11:33N 55°14' E 014°17'0 0.2
2016-May-28 10:34N 55°14' E 014°17'1 1.1
2016-May-28 09:34N 55°13' E 014°18'1 0.7
2016-May-28 08:34N 55°13' E 014°16'1 1.1
2016-May-28 07:25N 55°13' E 014°19'0 0.5
2016-May-28 06:33N 55°13' E 014°19'1 0.8
2016-May-28 05:34N 55°12' E 014°20'1 0.9
2016-May-28 04:33N 55°12' E 014°18'2 1.8
2016-May-28 03:33N 55°14' E 014°17'7 6.6
2016-May-28 02:33N 55°20' E 014°18'8 7.6
2016-May-28 01:34N 55°28' E 014°18'1 0.6
2016-May-28 00:33N 55°28' E 014°17'0 0.0
2016-May-27 23:33N 55°28' E 014°17'0 0.0
2016-May-27 22:33N 55°28' E 014°17'0 0.0
2016-May-27 21:33N 55°28' E 014°17'0 0.0
2016-May-27 20:33N 55°28' E 014°17'0 0.0
2016-May-27 19:33N 55°28' E 014°17'0 0.0
2016-May-27 18:33N 55°28' E 014°17'0 0.0
2016-May-27 17:33N 55°28' E 014°17'0 0.1
2016-May-27 16:33N 55°29' E 014°17'1 1.4
2016-May-27 15:31N 55°27' E 014°18'4 3.3
2016-May-27 14:19N 55°23' E 014°18'6 7.0
2016-May-27 13:32N 55°18' E 014°18'4 4.0
2016-May-27 12:33N 55°14' E 014°18'1 1.3
2016-May-27 11:33N 55°13' E 014°16'1 0.7
2016-May-27 10:33N 55°13' E 014°18'1 1.0
2016-May-27 09:33N 55°13' E 014°19'1 0.6
2016-May-27 08:33N 55°13' E 014°20'2 2.0
2016-May-27 07:25N 55°12' E 014°17'1 1.7
2016-May-27 06:33N 55°12' E 014°19'1 0.7
2016-May-27 05:33N 55°13' E 014°19'2 1.5
2016-May-27 04:33N 55°12' E 014°17'1 1.4
2016-May-27 03:33N 55°12' E 014°20'3 3.3
2016-May-27 02:34N 55°12' E 014°25'8 7.5
2016-May-27 01:33N 55°11' E 014°39'2 2.1
2016-May-27 00:33N 55°11' E 014°42'0 0.0
2016-May-26 23:32N 55°11' E 014°42'0 0.0
2016-May-26 22:33N 55°11' E 014°42'0 0.0
2016-May-26 21:33N 55°11' E 014°42'0 0.0
2016-May-26 20:34N 55°11' E 014°42'0 0.0
2016-May-26 19:33N 55°11' E 014°42'3 2.6
2016-May-26 18:32N 55°11' E 014°38'1 0.9
2016-May-26 17:33N 55°12' E 014°36'4 4.1
2016-May-26 16:34N 55°12' E 014°29'5 5.4
2016-May-26 15:34N 55°12' E 014°20'1 1.4
2016-May-26 14:33N 55°12' E 014°17'1 1.3
2016-May-26 13:33N 55°12' E 014°19'2 1.4
2016-May-26 12:24N 55°13' E 014°17'2 2.3
2016-May-26 11:32N 55°13' E 014°20'1 1.0
2016-May-26 10:33N 55°13' E 014°18'1 1.1
2016-May-26 09:33N 55°13' E 014°16'2 1.6
2016-May-26 08:33N 55°12' E 014°19'0 0.3
2016-May-26 07:27N 55°12' E 014°19'1 1.2
2016-May-26 06:32N 55°12' E 014°17'3 3.4
2016-May-26 05:32N 55°12' E 014°23'8 7.7
2016-May-26 04:33N 55°12' E 014°36'3 3.4
2016-May-26 03:33N 55°11' E 014°42'0 0.0
2016-May-26 02:33N 55°11' E 014°42'0 0.0
2016-May-26 01:33N 55°11' E 014°42'0 0.0
2016-May-26 00:33N 55°11' E 014°42'0 0.0
2016-May-25 23:34N 55°11' E 014°42'0 0.0
2016-May-25 22:34N 55°11' E 014°42'0 0.0
2016-May-25 21:33N 55°11' E 014°42'0 0.0
2016-May-25 20:33N 55°11' E 014°42'1 0.6
2016-May-25 19:33N 55°11' E 014°41'8 7.9
2016-May-25 18:33N 55°12' E 014°28'6 6.4
2016-May-25 17:33N 55°12' E 014°16'1 1.4
2016-May-25 16:34N 55°12' E 014°19'1 1.2
2016-May-25 15:33N 55°13' E 014°21'7 6.9
2016-May-25 14:33N 55°20' E 014°19'7 7.1
2016-May-25 13:33N 55°27' E 014°18'2 1.8
2016-May-25 12:33N 55°28' E 014°17'0 0.0
2016-May-25 11:33N 55°28' E 014°17'0 0.0
2016-May-25 10:33N 55°28' E 014°17'0 0.0
2016-May-25 09:33N 55°28' E 014°17'0 0.0
2016-May-25 08:33N 55°28' E 014°17'0 0.0
2016-May-25 07:31N 55°28' E 014°17'0 0.0
2016-May-25 06:33N 55°28' E 014°17'0 0.0
2016-May-25 05:33N 55°28' E 014°17'0 0.0
2016-May-25 04:10N 55°28' E 014°17'0 0.0
2016-May-25 03:33N 55°28' E 014°17'0 0.0
2016-May-25 02:33N 55°28' E 014°17'0 0.0
2016-May-25 01:33N 55°28' E 014°17'0 0.0
2016-May-25 00:24N 55°28' E 014°17'0 0.0
2016-May-24 23:33N 55°28' E 014°17'0 0.0
2016-May-24 22:33N 55°28' E 014°17'0 0.0
2016-May-24 21:33N 55°28' E 014°17'0 0.0
2016-May-24 20:33N 55°28' E 014°17'0 0.0
2016-May-24 19:33N 55°28' E 014°17'0 0.0
2016-May-24 18:30N 55°28' E 014°17'0 0.0
2016-May-24 17:34N 55°28' E 014°17'0 0.0
2016-May-24 16:14N 55°28' E 014°17'0 0.0
2016-May-24 15:33N 55°28' E 014°17'0 0.0
2016-May-24 14:33N 55°28' E 014°17'0 0.0
2016-May-24 13:33N 55°28' E 014°17'0 0.0
2016-May-24 12:31N 55°28' E 014°17'0 0.0
2016-May-24 11:34N 55°28' E 014°17'0 0.0
2016-May-24 10:34N 55°28' E 014°17'0 0.0
2016-May-24 09:34N 55°28' E 014°17'0 0.0
2016-May-24 08:33N 55°28' E 014°17'0 0.0
2016-May-24 07:33N 55°28' E 014°17'0 0.0
2016-May-24 06:32N 55°28' E 014°17'0 0.0
2016-May-24 05:20N 55°28' E 014°17'0 0.0
2016-May-24 04:33N 55°28' E 014°17'0 0.0
2016-May-24 03:33N 55°28' E 014°17'0 0.0
2016-May-24 02:33N 55°28' E 014°17'0 0.0
2016-May-24 01:34N 55°28' E 014°17'0 0.0
2016-May-24 00:34N 55°28' E 014°17'0 0.0
2016-May-23 23:33N 55°28' E 014°17'0 0.0
2016-May-23 22:33N 55°28' E 014°17'0 0.0
2016-May-23 21:32N 55°28' E 014°17'0 0.0
2016-May-23 20:28N 55°28' E 014°17'0 0.0
2016-May-23 19:16N 55°28' E 014°17'0 0.0
2016-May-23 18:33N 55°28' E 014°17'0 0.0
2016-May-23 17:32N 55°28' E 014°17'0 0.0
2016-May-23 16:33N 55°28' E 014°17'0 0.0
2016-May-23 15:33N 55°28' E 014°17'0 0.0
2016-May-23 14:33N 55°28' E 014°17'0 0.0
2016-May-23 13:33N 55°28' E 014°17'0 0.0
2016-May-23 12:33N 55°28' E 014°17'0 0.0
2016-May-23 11:33N 55°28' E 014°17'0 0.0
2016-May-23 10:33N 55°28' E 014°17'0 0.0
2016-May-23 09:33N 55°28' E 014°17'0 0.0
2016-May-23 08:33N 55°28' E 014°17'0 0.0
2016-May-23 07:33N 55°28' E 014°17'0 0.0
2016-May-23 06:33N 55°28' E 014°17'0 0.0
2016-May-23 05:34N 55°28' E 014°17'0 0.0
2016-May-23 04:33N 55°28' E 014°17'0 0.0
2016-May-23 03:33N 55°28' E 014°17'0 0.0
2016-May-23 02:33N 55°28' E 014°17'0 0.0
2016-May-23 01:33N 55°28' E 014°17'0 0.0
2016-May-23 00:33N 55°28' E 014°17'0 0.0
2016-May-22 23:33N 55°28' E 014°17'0 0.0
2016-May-22 22:33N 55°28' E 014°17'0 0.0
2016-May-22 21:33N 55°28' E 014°17'0 0.0
2016-May-22 20:33N 55°28' E 014°17'0 0.0
2016-May-22 19:33N 55°28' E 014°17'0 0.0
2016-May-22 18:12N 55°28' E 014°17'0 0.0
2016-May-22 17:33N 55°28' E 014°17'0 0.0
2016-May-22 16:33N 55°28' E 014°17'0 0.0
2016-May-22 15:33N 55°28' E 014°17'0 0.0
2016-May-22 14:33N 55°28' E 014°17'0 0.0
2016-May-22 13:33N 55°28' E 014°17'0 0.0
2016-May-22 12:33N 55°28' E 014°17'0 0.0
2016-May-22 11:28N 55°28' E 014°17'0 0.0
2016-May-22 10:33N 55°28' E 014°17'0 0.0
2016-May-22 09:33N 55°28' E 014°17'0 0.0
2016-May-22 08:33N 55°28' E 014°17'0 0.0
2016-May-22 07:29N 55°28' E 014°17'0 0.0
2016-May-22 06:33N 55°28' E 014°17'0 0.0
2016-May-22 05:34N 55°28' E 014°17'0 0.0
2016-May-22 04:33N 55°28' E 014°17'0 0.0
2016-May-22 03:33N 55°28' E 014°17'0 0.0
2016-May-22 02:33N 55°28' E 014°17'0 0.0
2016-May-22 01:33N 55°28' E 014°17'0 0.0
2016-May-22 00:32N 55°28' E 014°17'0 0.0
2016-May-21 23:33N 55°28' E 014°17'0 0.0
2016-May-21 22:30N 55°28' E 014°17'0 0.0
2016-May-21 21:33N 55°28' E 014°17'0 0.0
2016-May-21 20:33N 55°28' E 014°17'0 0.0
2016-May-21 19:33N 55°28' E 014°17'0 0.0
2016-May-21 18:33N 55°28' E 014°17'0 0.0
2016-May-21 17:33N 55°28' E 014°17'0 0.0
2016-May-21 16:29N 55°28' E 014°17'0 0.0
2016-May-21 15:33N 55°28' E 014°17'0 0.0
2016-May-21 14:33N 55°28' E 014°17'0 0.0
2016-May-21 13:33N 55°28' E 014°17'0 0.0
2016-May-21 12:33N 55°28' E 014°17'0 0.0
2016-May-21 11:33N 55°28' E 014°17'0 0.0
2016-May-21 10:28N 55°28' E 014°17'0 0.0
2016-May-21 09:34N 55°28' E 014°17'0 0.0
2016-May-21 08:33N 55°28' E 014°17'0 0.0
2016-May-21 07:33N 55°28' E 014°17'0 0.0
2016-May-21 06:12N 55°28' E 014°17'0 0.0
2016-May-21 05:24N 55°28' E 014°17'0 0.0
2016-May-21 04:33N 55°28' E 014°17'0 0.0
2016-May-21 03:33N 55°28' E 014°17'0 0.0
2016-May-21 02:33N 55°28' E 014°17'0 0.0
2016-May-21 01:33N 55°28' E 014°17'0 0.0
2016-May-21 00:33N 55°28' E 014°17'0 0.0
2016-May-20 23:33N 55°28' E 014°17'0 0.0
2016-May-20 22:33N 55°28' E 014°17'0 0.0
2016-May-20 21:33N 55°28' E 014°17'0 0.0
2016-May-20 20:33N 55°28' E 014°17'0 0.0
2016-May-20 18:33N 55°28' E 014°17'0 0.0
2016-May-20 17:33N 55°28' E 014°17'0 0.0
2016-May-20 16:33N 55°28' E 014°17'0 0.0
2016-May-20 15:33N 55°28' E 014°17'0 0.0
2016-May-20 14:34N 55°28' E 014°17'0 0.0
2016-May-20 13:26N 55°28' E 014°17'0 0.0
2016-May-20 12:33N 55°28' E 014°17'0 0.0
2016-May-20 11:33N 55°28' E 014°17'0 0.0
2016-May-20 10:33N 55°28' E 014°17'0 0.0
2016-May-20 09:33N 55°28' E 014°17'0 0.0
2016-May-20 08:33N 55°28' E 014°17'0 0.1
2016-May-20 07:33N 55°29' E 014°17'0 0.0
2016-May-20 06:33N 55°29' E 014°17'0 0.0
2016-May-20 05:33N 55°29' E 014°17'0 0.0
2016-May-20 04:33N 55°29' E 014°17'0 0.0
2016-May-20 03:33N 55°29' E 014°17'0 0.0
2016-May-20 02:33N 55°29' E 014°17'0 0.0
2016-May-20 01:33N 55°29' E 014°17'0 0.0
2016-May-20 00:33N 55°29' E 014°17'0 0.0
2016-May-19 23:33N 55°29' E 014°17'0 0.0
2016-May-19 22:33N 55°29' E 014°17'0 0.0
2016-May-19 21:33N 55°29' E 014°17'0 0.0
2016-May-19 20:33N 55°29' E 014°17'3 3.4
2016-May-19 19:33N 55°25' E 014°20'5 4.6
2016-May-19 18:32N 55°21' E 014°24'7 6.9
2016-May-19 17:33N 55°15' E 014°30'2 2.2
2016-May-19 16:34N 55°14' E 014°32'0 0.4
2016-May-19 15:33N 55°13' E 014°32'0 0.5
2016-May-19 14:34N 55°13' E 014°33'  
Track history (hours):
 
Tides and Currents Weather Stations Pressure Air Temp Water Temp Dewpoint Dewpoint Depression Visibility Wind Speed Wind Dir Waves Ship Positions

Kristina

Last reported at 2016-May-29 14:34 UTC. Time now 2016-May-29 15:24 UTC.
Position N 55°29' E 014°17'.

Length 11 m; draft 2 m.

Type: Fishing. MMSI: 265630900.

Date/timePositionNaut miles runAvg speedWind from/ knotsBaromVisibWave heightAir tempDewpointWater temp
2016-May-29 14:34N 55°29' E 014°17'0 0.0
2016-May-29 13:34N 55°29' E 014°17'0 0.0
2016-May-29 12:33N 55°29' E 014°17'0 0.0
2016-May-29 11:33N 55°29' E 014°17'0 0.0
2016-May-29 10:33N 55°29' E 014°17'0 0.0
2016-May-29 09:33N 55°29' E 014°17'0 0.0
2016-May-29 08:34N 55°29' E 014°17'0 0.0
2016-May-29 07:24N 55°29' E 014°17'0 0.0
2016-May-29 06:33N 55°29' E 014°17'11 0.6
2016-May-28 12:07N 55°17' E 014°17'3 5.1
2016-May-28 11:33N 55°14' E 014°17'0 0.2
2016-May-28 10:34N 55°14' E 014°17'1 1.1
2016-May-28 09:34N 55°13' E 014°18'1 0.7
2016-May-28 08:34N 55°13' E 014°16'1 1.1
2016-May-28 07:25N 55°13' E 014°19'0 0.5
2016-May-28 06:33N 55°13' E 014°19'1 0.8
2016-May-28 05:34N 55°12' E 014°20'1 0.9
2016-May-28 04:33N 55°12' E 014°18'2 1.8
2016-May-28 03:33N 55°14' E 014°17'7 6.6
2016-May-28 02:33N 55°20' E 014°18'8 7.6
2016-May-28 01:34N 55°28' E 014°18'1 0.6
2016-May-28 00:33N 55°28' E 014°17'0 0.0
2016-May-27 23:33N 55°28' E 014°17'0 0.0
2016-May-27 22:33N 55°28' E 014°17'0 0.0
2016-May-27 21:33N 55°28' E 014°17'0 0.0
2016-May-27 20:33N 55°28' E 014°17'0 0.0
2016-May-27 19:33N 55°28' E 014°17'0 0.0
2016-May-27 18:33N 55°28' E 014°17'0 0.0
2016-May-27 17:33N 55°28' E 014°17'0 0.1
2016-May-27 16:33N 55°29' E 014°17'1 1.4
2016-May-27 15:31N 55°27' E 014°18'4 3.3
2016-May-27 14:19N 55°23' E 014°18'6 7.0
2016-May-27 13:32N 55°18' E 014°18'4 4.0
2016-May-27 12:33N 55°14' E 014°18'1 1.3
2016-May-27 11:33N 55°13' E 014°16'1 0.7
2016-May-27 10:33N 55°13' E 014°18'1 1.0
2016-May-27 09:33N 55°13' E 014°19'1 0.6
2016-May-27 08:33N 55°13' E 014°20'2 2.0
2016-May-27 07:25N 55°12' E 014°17'1 1.7
2016-May-27 06:33N 55°12' E 014°19'1 0.7
2016-May-27 05:33N 55°13' E 014°19'2 1.5
2016-May-27 04:33N 55°12' E 014°17'1 1.4
2016-May-27 03:33N 55°12' E 014°20'3 3.3
2016-May-27 02:34N 55°12' E 014°25'8 7.5
2016-May-27 01:33N 55°11' E 014°39'2 2.1
2016-May-27 00:33N 55°11' E 014°42'0 0.0
2016-May-26 23:32N 55°11' E 014°42'0 0.0
2016-May-26 22:33N 55°11' E 014°42'0 0.0
2016-May-26 21:33N 55°11' E 014°42'0 0.0
2016-May-26 20:34N 55°11' E 014°42'0 0.0
2016-May-26 19:33N 55°11' E 014°42'3 2.6
2016-May-26 18:32N 55°11' E 014°38'1 0.9
2016-May-26 17:33N 55°12' E 014°36'4 4.1
2016-May-26 16:34N 55°12' E 014°29'5 5.4
2016-May-26 15:34N 55°12' E 014°20'1 1.4
2016-May-26 14:33N 55°12' E 014°17'1 1.3
2016-May-26 13:33N 55°12' E 014°19'2 1.4
2016-May-26 12:24N 55°13' E 014°17'2 2.3
2016-May-26 11:32N 55°13' E 014°20'1 1.0
2016-May-26 10:33N 55°13' E 014°18'1 1.1
2016-May-26 09:33N 55°13' E 014°16'2 1.6
2016-May-26 08:33N 55°12' E 014°19'0 0.3
2016-May-26 07:27N 55°12' E 014°19'1 1.2
2016-May-26 06:32N 55°12' E 014°17'3 3.4
2016-May-26 05:32N 55°12' E 014°23'8 7.7
2016-May-26 04:33N 55°12' E 014°36'3 3.4
2016-May-26 03:33N 55°11' E 014°42'0 0.0
2016-May-26 02:33N 55°11' E 014°42'0 0.0
2016-May-26 01:33N 55°11' E 014°42'0 0.0
2016-May-26 00:33N 55°11' E 014°42'0 0.0
2016-May-25 23:34N 55°11' E 014°42'0 0.0
2016-May-25 22:34N 55°11' E 014°42'0 0.0
2016-May-25 21:33N 55°11' E 014°42'0 0.0
2016-May-25 20:33N 55°11' E 014°42'1 0.6
2016-May-25 19:33N 55°11' E 014°41'8 7.9
2016-May-25 18:33N 55°12' E 014°28'6 6.4
2016-May-25 17:33N 55°12' E 014°16'1 1.4
2016-May-25 16:34N 55°12' E 014°19'1 1.2
2016-May-25 15:33N 55°13' E 014°21'7 6.9
2016-May-25 14:33N 55°20' E 014°19'7 7.1
2016-May-25 13:33N 55°27' E 014°18'2 1.8
2016-May-25 12:33N 55°28' E 014°17'0 0.0
2016-May-25 11:33N 55°28' E 014°17'0 0.0
2016-May-25 10:33N 55°28' E 014°17'0 0.0
2016-May-25 09:33N 55°28' E 014°17'0 0.0
2016-May-25 08:33N 55°28' E 014°17'0 0.0
2016-May-25 07:31N 55°28' E 014°17'0 0.0
2016-May-25 06:33N 55°28' E 014°17'0 0.0
2016-May-25 05:33N 55°28' E 014°17'0 0.0
2016-May-25 04:10N 55°28' E 014°17'0 0.0
2016-May-25 03:33N 55°28' E 014°17'0 0.0
2016-May-25 02:33N 55°28' E 014°17'0 0.0
2016-May-25 01:33N 55°28' E 014°17'0 0.0
2016-May-25 00:24N 55°28' E 014°17'0 0.0
2016-May-24 23:33N 55°28' E 014°17'0 0.0
2016-May-24 22:33N 55°28' E 014°17'0 0.0
2016-May-24 21:33N 55°28' E 014°17'0 0.0
2016-May-24 20:33N 55°28' E 014°17'0 0.0
2016-May-24 19:33N 55°28' E 014°17'0 0.0
2016-May-24 18:30N 55°28' E 014°17'0 0.0
2016-May-24 17:34N 55°28' E 014°17'0 0.0
2016-May-24 16:14N 55°28' E 014°17'0 0.0
2016-May-24 15:33N 55°28' E 014°17'0 0.0
2016-May-24 14:33N 55°28' E 014°17'0 0.0
2016-May-24 13:33N 55°28' E 014°17'0 0.0
2016-May-24 12:31N 55°28' E 014°17'0 0.0
2016-May-24 11:34N 55°28' E 014°17'0 0.0
2016-May-24 10:34N 55°28' E 014°17'0 0.0
2016-May-24 09:34N 55°28' E 014°17'0 0.0
2016-May-24 08:33N 55°28' E 014°17'0 0.0
2016-May-24 07:33N 55°28' E 014°17'0 0.0
2016-May-24 06:32N 55°28' E 014°17'0 0.0
2016-May-24 05:20N 55°28' E 014°17'0 0.0
2016-May-24 04:33N 55°28' E 014°17'0 0.0
2016-May-24 03:33N 55°28' E 014°17'0 0.0
2016-May-24 02:33N 55°28' E 014°17'0 0.0
2016-May-24 01:34N 55°28' E 014°17'0 0.0
2016-May-24 00:34N 55°28' E 014°17'0 0.0
2016-May-23 23:33N 55°28' E 014°17'0 0.0
2016-May-23 22:33N 55°28' E 014°17'0 0.0
2016-May-23 21:32N 55°28' E 014°17'0 0.0
2016-May-23 20:28N 55°28' E 014°17'0 0.0
2016-May-23 19:16N 55°28' E 014°17'0 0.0
2016-May-23 18:33N 55°28' E 014°17'0 0.0
2016-May-23 17:32N 55°28' E 014°17'0 0.0
2016-May-23 16:33N 55°28' E 014°17'0 0.0
2016-May-23 15:33N 55°28' E 014°17'0 0.0
2016-May-23 14:33N 55°28' E 014°17'0 0.0
2016-May-23 13:33N 55°28' E 014°17'0 0.0
2016-May-23 12:33N 55°28' E 014°17'0 0.0
2016-May-23 11:33N 55°28' E 014°17'0 0.0
2016-May-23 10:33N 55°28' E 014°17'0 0.0
2016-May-23 09:33N 55°28' E 014°17'0 0.0
2016-May-23 08:33N 55°28' E 014°17'0 0.0
2016-May-23 07:33N 55°28' E 014°17'0 0.0
2016-May-23 06:33N 55°28' E 014°17'0 0.0
2016-May-23 05:34N 55°28' E 014°17'0 0.0
2016-May-23 04:33N 55°28' E 014°17'0 0.0
2016-May-23 03:33N 55°28' E 014°17'0 0.0
2016-May-23 02:33N 55°28' E 014°17'0 0.0
2016-May-23 01:33N 55°28' E 014°17'0 0.0
2016-May-23 00:33N 55°28' E 014°17'0 0.0
2016-May-22 23:33N 55°28' E 014°17'0 0.0
2016-May-22 22:33N 55°28' E 014°17'0 0.0
2016-May-22 21:33N 55°28' E 014°17'0 0.0
2016-May-22 20:33N 55°28' E 014°17'0 0.0
2016-May-22 19:33N 55°28' E 014°17'0 0.0
2016-May-22 18:12N 55°28' E 014°17'0 0.0
2016-May-22 17:33N 55°28' E 014°17'0 0.0
2016-May-22 16:33N 55°28' E 014°17'0 0.0
2016-May-22 15:33N 55°28' E 014°17'0 0.0
2016-May-22 14:33N 55°28' E 014°17'0 0.0
2016-May-22 13:33N 55°28' E 014°17'0 0.0
2016-May-22 12:33N 55°28' E 014°17'0 0.0
2016-May-22 11:28N 55°28' E 014°17'0 0.0
2016-May-22 10:33N 55°28' E 014°17'0 0.0
2016-May-22 09:33N 55°28' E 014°17'0 0.0
2016-May-22 08:33N 55°28' E 014°17'0 0.0
2016-May-22 07:29N 55°28' E 014°17'0 0.0
2016-May-22 06:33N 55°28' E 014°17'0 0.0
2016-May-22 05:34N 55°28' E 014°17'0 0.0
2016-May-22 04:33N 55°28' E 014°17'0 0.0
2016-May-22 03:33N 55°28' E 014°17'0 0.0
2016-May-22 02:33N 55°28' E 014°17'0 0.0
2016-May-22 01:33N 55°28' E 014°17'0 0.0
2016-May-22 00:32N 55°28' E 014°17'0 0.0
2016-May-21 23:33N 55°28' E 014°17'0 0.0
2016-May-21 22:30N 55°28' E 014°17'0 0.0
2016-May-21 21:33N 55°28' E 014°17'0 0.0
2016-May-21 20:33N 55°28' E 014°17'0 0.0
2016-May-21 19:33N 55°28' E 014°17'0 0.0
2016-May-21 18:33N 55°28' E 014°17'0 0.0
2016-May-21 17:33N 55°28' E 014°17'0 0.0
2016-May-21 16:29N 55°28' E 014°17'0 0.0
2016-May-21 15:33N 55°28' E 014°17'0 0.0
2016-May-21 14:33N 55°28' E 014°17'0 0.0
2016-May-21 13:33N 55°28' E 014°17'0 0.0
2016-May-21 12:33N 55°28' E 014°17'0 0.0
2016-May-21 11:33N 55°28' E 014°17'0 0.0
2016-May-21 10:28N 55°28' E 014°17'0 0.0
2016-May-21 09:34N 55°28' E 014°17'0 0.0
2016-May-21 08:33N 55°28' E 014°17'0 0.0
2016-May-21 07:33N 55°28' E 014°17'0 0.0
2016-May-21 06:12N 55°28' E 014°17'0 0.0
2016-May-21 05:24N 55°28' E 014°17'0 0.0
2016-May-21 04:33N 55°28' E 014°17'0 0.0
2016-May-21 03:33N 55°28' E 014°17'0 0.0
2016-May-21 02:33N 55°28' E 014°17'0 0.0
2016-May-21 01:33N 55°28' E 014°17'0 0.0
2016-May-21 00:33N 55°28' E 014°17'0 0.0
2016-May-20 23:33N 55°28' E 014°17'0 0.0
2016-May-20 22:33N 55°28' E 014°17'0 0.0
2016-May-20 21:33N 55°28' E 014°17'0 0.0
2016-May-20 20:33N 55°28' E 014°17'0 0.0
2016-May-20 18:33N 55°28' E 014°17'0 0.0
2016-May-20 17:33N 55°28' E 014°17'0 0.0
2016-May-20 16:33N 55°28' E 014°17'0 0.0
2016-May-20 15:33N 55°28' E 014°17'0 0.0
2016-May-20 14:34N 55°28' E 014°17'0 0.0
2016-May-20 13:26N 55°28' E 014°17'0 0.0
2016-May-20 12:33N 55°28' E 014°17'0 0.0
2016-May-20 11:33N 55°28' E 014°17'0 0.0
2016-May-20 10:33N 55°28' E 014°17'0 0.0
2016-May-20 09:33N 55°28' E 014°17'0 0.0
2016-May-20 08:33N 55°28' E 014°17'0 0.1
2016-May-20 07:33N 55°29' E 014°17'0 0.0
2016-May-20 06:33N 55°29' E 014°17'0 0.0
2016-May-20 05:33N 55°29' E 014°17'0 0.0
2016-May-20 04:33N 55°29' E 014°17'0 0.0
2016-May-20 03:33N 55°29' E 014°17'0 0.0
2016-May-20 02:33N 55°29' E 014°17'0 0.0
2016-May-20 01:33N 55°29' E 014°17'0 0.0
2016-May-20 00:33N 55°29' E 014°17'0 0.0
2016-May-19 23:33N 55°29' E 014°17'0 0.0
2016-May-19 22:33N 55°29' E 014°17'0 0.0
2016-May-19 21:33N 55°29' E 014°17'0 0.0
2016-May-19 20:33N 55°29' E 014°17'3 3.4
2016-May-19 19:33N 55°25' E 014°20'5 4.6
2016-May-19 18:32N 55°21' E 014°24'7 6.9
2016-May-19 17:33N 55°15' E 014°30'2 2.2
2016-May-19 16:34N 55°14' E 014°32'0 0.4
2016-May-19 15:33N 55°13' E 014°32'0 0.5
2016-May-19 14:34N 55°13' E 014°33'  

Dump ship's entire track history